Time;durP1;ratioP1;P1;durP2;ratioP2;P2;SDS_P1;SDS_P2;PMS_P1;PMS_P2;Temp;Humidity;BMP_temperature;BMP_pressure;BME280_temperature;BME280_humidity;BME280_pressure;Samples;Min_cycle;Max_cycle;Signal;HPM_P1;HPM_P2
2021/12/11 00:01:16;;;;;;;12.70;10.27;;;-0.50;99.90;;;;;;5080718;28;20045;-64
2021/12/11 00:03:46;;;;;;;13.82;9.73;;;-0.60;99.90;;;;;;5066665;28;20048;-64
2021/12/11 00:06:25;;;;;;;13.98;10.20;;;-0.60;99.90;;;;;;5069273;28;20098;-64
2021/12/11 00:08:53;;;;;;;17.30;10.43;;;-0.60;99.90;;;;;;5074244;28;20037;-64
2021/12/11 00:11:24;;;;;;;15.48;10.93;;;-0.70;99.90;;;;;;5068646;28;20226;-63
2021/12/11 00:13:54;;;;;;;15.65;10.75;;;-0.70;99.90;;;;;;5063462;28;20039;-64
2021/12/11 00:16:22;;;;;;;17.38;12.60;;;-0.70;99.90;;;;;;5079782;28;20128;-64
2021/12/11 00:19:02;;;;;;;14.55;11.50;;;-0.70;99.90;;;;;;5080929;28;20041;-64
2021/12/11 00:21:30;;;;;;;14.98;11.27;;;-0.70;99.90;;;;;;5069836;28;20041;-64
2021/12/11 00:24:07;;;;;;;17.27;11.20;;;-0.70;99.90;;;;;;5069884;28;20036;-64
2021/12/11 00:26:42;;;;;;;19.52;11.30;;;-0.70;99.90;;;;;;5070015;28;20048;-64
2021/12/11 00:29:10;;;;;;;16.77;9.77;;;-0.80;99.90;;;;;;5069279;28;20048;-64
2021/12/11 00:31:41;;;;;;;16.23;10.50;;;-0.80;99.90;;;;;;5073855;28;20032;-65
2021/12/11 00:34:11;;;;;;;18.17;10.63;;;-0.80;99.90;;;;;;5074190;28;20078;-64
2021/12/11 00:36:37;;;;;;;19.42;12.38;;;-0.80;99.90;;;;;;5056399;28;20107;-64
2021/12/11 00:39:12;;;;;;;14.00;10.18;;;-0.90;99.90;;;;;;5072578;28;20579;-64
2021/12/11 00:41:39;;;;;;;12.57;9.65;;;-1.00;99.90;;;;;;5073880;28;20051;-64
2021/12/11 00:44:05;;;;;;;15.50;10.50;;;-1.10;99.90;;;;;;5076200;28;20055;-64
2021/12/11 00:46:33;;;;;;;12.95;10.00;;;-1.10;99.90;;;;;;5073238;28;20051;-64
2021/12/11 00:49:14;;;;;;;16.60;11.80;;;-1.10;99.90;;;;;;5068739;28;20443;-64
2021/12/11 00:51:41;;;;;;;16.98;12.20;;;-1.10;99.90;;;;;;5073566;28;20511;-65
2021/12/11 00:54:07;;;;;;;16.05;12.35;;;-1.10;99.90;;;;;;5073118;28;20116;-63
2021/12/11 00:56:39;;;;;;;16.52;11.70;;;-1.10;99.90;;;;;;5072266;28;20040;-63
2021/12/11 00:59:09;;;;;;;11.55;9.20;;;-1.10;99.90;;;;;;5072999;28;20033;-63
2021/12/11 01:01:44;;;;;;;10.15;8.43;;;-1.20;99.90;;;;;;5073808;28;20052;-64
2021/12/11 01:04:24;;;;;;;10.43;9.30;;;-1.20;99.90;;;;;;5071659;28;20501;-64
2021/12/11 01:06:57;;;;;;;12.43;9.70;;;-1.20;99.90;;;;;;5073436;28;20044;-64
2021/12/11 01:09:28;;;;;;;12.80;9.73;;;-1.10;99.90;;;;;;5072982;28;20044;-64
2021/12/11 01:12:06;;;;;;;13.00;10.73;;;-1.10;99.90;;;;;;5073061;28;20479;-63
2021/12/11 01:14:54;;;;;;;15.77;12.15;;;-1.10;99.90;;;;;;5072626;28;20097;-63
2021/12/11 01:17:22;;;;;;;29.88;13.88;;;-1.10;99.90;;;;;;5073283;28;20028;-64
2021/12/11 01:19:55;;;;;;;23.92;14.65;;;-1.10;99.90;;;;;;5072959;28;20040;-64
2021/12/11 01:22:34;;;;;;;19.73;14.00;;;-1.10;99.90;;;;;;5072925;28;20036;-64
2021/12/11 01:25:21;;;;;;;21.83;14.80;;;-1.10;99.90;;;;;;5072525;28;20043;-64
2021/12/11 01:27:55;;;;;;;26.27;16.08;;;-1.00;99.90;;;;;;5073004;28;20041;-64
2021/12/11 01:30:31;;;;;;;19.83;13.75;;;-1.10;99.90;;;;;;5072635;28;20060;-64
2021/12/11 01:32:58;;;;;;;21.38;14.13;;;-1.10;99.90;;;;;;5071894;28;20117;-64
2021/12/11 01:35:24;;;;;;;;;;;-1.10;99.90;;;;;;5072880;28;20039;-64
2021/12/11 01:37:59;;;;;;;23.45;14.52;;;-1.10;99.90;;;;;;5072747;28;20439;-63
2021/12/11 01:40:31;;;;;;;19.42;12.82;;;-1.10;99.90;;;;;;5072791;28;20059;-64
2021/12/11 01:42:59;;;;;;;19.08;13.20;;;-1.10;99.90;;;;;;5072169;28;20041;-65
2021/12/11 01:45:25;;;;;;;19.60;13.30;;;-1.10;99.90;;;;;;5072849;28;20036;-64
2021/12/11 01:47:50;;;;;;;21.53;13.37;;;-1.10;99.90;;;;;;5072584;28;20592;-64
2021/12/11 01:50:32;;;;;;;22.87;14.63;;;-1.20;99.90;;;;;;5072675;28;20499;-64
2021/12/11 01:53:09;;;;;;;21.02;14.52;;;-1.20;99.90;;;;;;5072152;28;20036;-65
2021/12/11 01:55:47;;;;;;;;;;;-1.20;99.90;;;;;;5072599;28;20601;-64
2021/12/11 01:58:20;;;;;;;23.83;14.45;;;-1.20;99.90;;;;;;5072340;28;20380;-64
2021/12/11 02:00:53;;;;;;;23.08;15.18;;;-1.20;99.90;;;;;;5072918;28;20106;-64
2021/12/11 02:03:23;;;;;;;24.02;13.85;;;-1.30;99.90;;;;;;5072168;28;20062;-64
2021/12/11 02:05:49;;;;;;;22.42;14.82;;;-1.30;99.90;;;;;;5072655;28;20040;-64
2021/12/11 02:08:19;;;;;;;21.20;13.95;;;-1.30;99.90;;;;;;5073367;28;20437;-64
2021/12/11 02:10:53;;;;;;;21.02;14.75;;;-1.30;99.90;;;;;;5084265;28;20377;-64
2021/12/11 02:13:33;;;;;;;26.23;14.65;;;-1.30;99.90;;;;;;5071767;28;20044;-64
2021/12/11 02:15:59;;;;;;;21.33;13.07;;;-1.30;99.90;;;;;;5072283;28;20106;-63
2021/12/11 02:18:36;;;;;;;24.60;14.27;;;-1.30;99.90;;;;;;5071479;28;20492;-63
2021/12/11 02:21:07;;;;;;;;;;;-1.30;99.90;;;;;;5072517;28;20366;-64
2021/12/11 02:23:33;;;;;;;17.00;11.73;;;-1.30;99.90;;;;;;5071455;28;20015;-64
2021/12/11 02:26:03;;;;;;;19.30;11.98;;;-1.40;99.90;;;;;;5072266;28;20454;-64
2021/12/11 02:28:32;;;;;;;20.23;13.32;;;-1.40;99.90;;;;;;5071605;28;20080;-63
2021/12/11 02:31:20;;;;;;;20.63;13.93;;;-1.40;99.90;;;;;;5071921;28;20033;-64
2021/12/11 02:33:52;;;;;;;20.73;15.20;;;-1.40;99.90;;;;;;5085110;28;20043;-63
2021/12/11 02:36:23;;;;;;;20.70;13.60;;;-1.40;99.90;;;;;;5091778;28;20551;-63
2021/12/11 02:39:00;;;;;;;21.30;13.90;;;-1.40;99.90;;;;;;5061417;28;20040;-64
2021/12/11 02:41:38;;;;;;;17.85;11.93;;;-1.40;99.90;;;;;;5071059;28;20102;-64
2021/12/11 02:44:15;;;;;;;19.65;13.75;;;-1.40;99.90;;;;;;5071409;28;20036;-64
2021/12/11 02:46:51;;;;;;;17.95;13.13;;;-1.50;99.90;;;;;;5071281;28;20036;-64
2021/12/11 02:49:27;;;;;;;21.95;13.43;;;-1.40;99.90;;;;;;5071957;28;20047;-64
2021/12/11 02:52:11;;;;;;;20.60;13.80;;;-1.40;99.90;;;;;;5070426;28;20505;-64
2021/12/11 02:54:42;;;;;;;23.10;14.30;;;-1.40;99.90;;;;;;5071108;28;20390;-64
2021/12/11 02:57:23;;;;;;;20.25;13.63;;;-1.50;99.90;;;;;;5070738;28;20123;-64
2021/12/11 02:59:49;;;;;;;21.23;14.43;;;-1.50;99.90;;;;;;5069463;28;20485;-64
2021/12/11 03:02:23;;;;;;;28.92;15.98;;;-1.60;99.90;;;;;;5069306;28;20059;-64
2021/12/11 03:05:07;;;;;;;26.85;15.75;;;-1.60;99.90;;;;;;5069690;28;20072;-64
2021/12/11 03:07:38;;;;;;;22.92;15.43;;;-1.60;99.90;;;;;;5070155;28;20077;-64
2021/12/11 03:10:09;;;;;;;20.50;13.63;;;-1.60;99.90;;;;;;5071050;28;20043;-63
2021/12/11 03:12:36;;;;;;;22.00;14.63;;;-1.60;99.90;;;;;;5069774;28;20032;-64
2021/12/11 03:15:04;;;;;;;20.23;14.40;;;-1.60;99.90;;;;;;5069825;28;20421;-63
2021/12/11 03:17:30;;;;;;;20.02;14.23;;;-1.60;99.90;;;;;;5070422;28;20509;-64
2021/12/11 03:19:55;;;;;;;23.60;14.10;;;-1.60;99.90;;;;;;5070795;28;20083;-65
2021/12/11 03:22:29;;;;;;;21.70;14.97;;;-1.70;99.90;;;;;;5070332;28;20270;-63
2021/12/11 03:24:57;;;;;;;20.90;13.43;;;-1.70;99.90;;;;;;5069378;28;20039;-63
2021/12/11 03:27:23;;;;;;;20.70;14.32;;;-1.70;99.90;;;;;;5070644;28;20036;-63
2021/12/11 03:29:49;;;;;;;23.58;16.63;;;-1.70;99.90;;;;;;5071118;28;20445;-64
2021/12/11 03:32:16;;;;;;;21.90;15.05;;;-1.70;99.90;;;;;;5069620;28;20045;-64
2021/12/11 03:34:43;;;;;;;19.13;13.90;;;-1.70;99.90;;;;;;5070113;28;20044;-64
2021/12/11 03:37:12;;;;;;;24.02;14.55;;;-1.80;99.90;;;;;;5070966;28;20044;-64
2021/12/11 03:39:44;;;;;;;29.48;15.73;;;-1.80;99.90;;;;;;5070453;28;20046;-65
2021/12/11 03:42:17;;;;;;;22.45;14.90;;;-1.90;99.90;;;;;;5070664;28;20111;-63
2021/12/11 03:44:43;;;;;;;23.70;14.57;;;-1.90;99.90;;;;;;5070072;28;20044;-64
2021/12/11 03:47:17;;;;;;;25.30;16.55;;;-2.00;99.90;;;;;;5070802;28;20044;-65
2021/12/11 03:49:44;;;;;;;23.00;15.68;;;-2.00;99.90;;;;;;5070336;28;20064;-65
2021/12/11 03:52:11;;;;;;;21.05;14.05;;;-2.00;99.90;;;;;;5070382;28;20086;-64
2021/12/11 03:54:39;;;;;;;19.42;13.13;;;-2.00;99.90;;;;;;5069773;28;20513;-64
2021/12/11 03:57:06;;;;;;;22.85;13.38;;;-2.00;99.90;;;;;;5070322;28;20044;-65
2021/12/11 03:59:32;;;;;;;22.92;15.20;;;-2.00;99.90;;;;;;5069883;28;20036;-64
2021/12/11 04:02:06;;;;;;;21.67;14.75;;;-1.90;99.90;;;;;;5070000;28;20501;-64
2021/12/11 04:04:39;;;;;;;22.90;15.10;;;-1.90;99.90;;;;;;5068515;28;20093;-65
2021/12/11 04:07:08;;;;;;;27.65;18.77;;;-1.90;99.90;;;;;;5070241;28;20049;-64
2021/12/11 04:09:34;;;;;;;26.17;17.92;;;-1.80;99.90;;;;;;5070020;28;20040;-65
2021/12/11 04:12:01;;;;;;;35.65;19.35;;;-1.80;99.90;;;;;;5070250;28;20032;-64
2021/12/11 04:14:31;;;;;;;29.02;18.75;;;-1.70;99.90;;;;;;5069832;28;20028;-64
2021/12/11 04:16:58;;;;;;;31.27;18.42;;;-1.70;99.90;;;;;;5070306;28;20294;-64
2021/12/11 04:19:25;;;;;;;37.85;22.50;;;-1.70;99.90;;;;;;5070220;28;20488;-63
2021/12/11 04:21:51;;;;;;;37.10;20.63;;;-1.70;99.90;;;;;;5069671;28;20068;-63
2021/12/11 04:24:21;;;;;;;34.92;20.40;;;-1.60;99.90;;;;;;5063832;28;20524;-64
2021/12/11 04:26:49;;;;;;;32.13;19.80;;;-1.60;99.90;;;;;;5057719;28;20319;-63
2021/12/11 04:29:14;;;;;;;30.45;19.45;;;-1.60;99.90;;;;;;5068940;28;20063;-64
2021/12/11 04:31:43;;;;;;;29.97;19.03;;;-1.60;99.90;;;;;;5069745;28;20040;-64
2021/12/11 04:34:13;;;;;;;25.48;18.40;;;-1.60;99.90;;;;;;5069662;28;20104;-64
2021/12/11 04:36:51;;;;;;;30.45;18.25;;;-1.60;99.90;;;;;;5069622;28;20539;-64
2021/12/11 04:39:20;;;;;;;26.33;17.58;;;-1.60;99.90;;;;;;5072455;28;20090;-64
2021/12/11 04:42:05;;;;;;;24.80;15.93;;;-1.60;99.90;;;;;;5072744;28;20036;-64
2021/12/11 04:44:38;;;;;;;31.30;19.23;;;-1.60;99.90;;;;;;5071565;28;20079;-64
2021/12/11 04:47:11;;;;;;;25.98;17.63;;;-1.60;99.90;;;;;;5074304;28;20054;-64
2021/12/11 04:49:45;;;;;;;31.23;18.70;;;-1.60;99.90;;;;;;5090283;28;20092;-65
2021/12/11 04:52:18;;;;;;;34.75;17.85;;;-1.60;99.90;;;;;;5070642;28;20040;-65
2021/12/11 04:55:20;;;;;;;31.15;17.20;;;-1.60;99.90;;;;;;5069986;28;20041;-63
2021/12/11 04:58:00;;;;;;;31.02;17.85;;;-1.70;99.90;;;;;;5070560;28;20059;-64
2021/12/11 05:00:59;;;;;;;24.15;16.45;;;-1.70;99.90;;;;;;5069935;28;20115;-63
2021/12/11 05:06:37;;;;;;;22.58;14.52;;;-1.70;99.90;;;;;;5069520;28;20389;-64
2021/12/11 05:09:23;;;;;;;21.98;15.27;;;-1.70;99.90;;;;;;5079440;28;20101;-64
2021/12/11 05:14:42;;;;;;;25.58;14.25;;;-1.70;99.90;;;;;;5061191;28;20036;-65
2021/12/11 05:17:09;;;;;;;23.00;14.82;;;-1.80;99.90;;;;;;5073463;28;20033;-64
2021/12/11 05:19:35;;;;;;;23.70;15.95;;;-1.80;99.90;;;;;;5072919;28;20032;-64
2021/12/11 05:22:04;;;;;;;20.40;14.48;;;-1.80;99.90;;;;;;5073058;28;20037;-65
2021/12/11 05:24:30;;;;;;;27.25;15.30;;;-1.80;99.90;;;;;;5071249;28;20040;-64
2021/12/11 05:26:55;;;;;;;25.05;17.55;;;-1.80;99.90;;;;;;5072786;28;20519;-65
2021/12/11 05:29:21;;;;;;;23.47;15.83;;;-1.80;99.90;;;;;;5073147;28;20036;-64
2021/12/11 05:31:47;;;;;;;28.63;18.43;;;-1.80;99.90;;;;;;5072788;28;20082;-65
2021/12/11 05:34:13;;;;;;;28.00;16.60;;;-1.80;99.90;;;;;;5054541;28;20076;-64
2021/12/11 05:36:38;;;;;;;30.65;18.50;;;-1.80;99.90;;;;;;5072654;28;20508;-65
2021/12/11 05:39:13;;;;;;;24.00;16.63;;;-1.80;99.90;;;;;;5072833;28;20466;-64
2021/12/11 05:41:40;;;;;;;26.48;17.33;;;-1.80;99.90;;;;;;5072426;28;20056;-64
2021/12/11 05:44:08;;;;;;;28.50;17.15;;;-1.80;99.90;;;;;;5072498;28;20059;-64
2021/12/11 05:46:34;;;;;;;28.42;18.98;;;-1.80;99.90;;;;;;5072624;28;20404;-64
2021/12/11 05:49:00;;;;;;;24.33;17.02;;;-1.80;99.90;;;;;;5072678;28;20032;-65
2021/12/11 05:51:27;;;;;;;25.65;16.95;;;-1.80;99.90;;;;;;5072780;28;20441;-64
2021/12/11 05:53:57;;;;;;;23.63;16.23;;;-1.70;99.90;;;;;;5071927;28;20048;-64
2021/12/11 05:56:24;;;;;;;30.98;16.67;;;-1.70;99.90;;;;;;5072477;28;20033;-65
2021/12/11 06:01:24;;;;;;;30.27;18.20;;;-1.80;99.90;;;;;;5072970;28;20044;-64
2021/12/11 06:03:51;;;;;;;24.95;15.95;;;-1.80;99.90;;;;;;5071917;28;20508;-64
2021/12/11 06:06:17;;;;;;;30.02;18.35;;;-1.80;99.90;;;;;;5072307;28;20044;-64
2021/12/11 06:08:43;;;;;;;35.95;19.55;;;-1.80;99.90;;;;;;5072026;28;20044;-64
2021/12/11 06:11:12;;;;;;;35.08;20.83;;;-1.80;99.90;;;;;;5074526;28;20413;-64
2021/12/11 06:13:37;;;;;;;35.50;21.92;;;-1.80;99.90;;;;;;5078906;28;20118;-63
2021/12/11 06:16:04;;;;;;;28.97;18.43;;;-1.80;99.90;;;;;;5071562;28;20092;-64
2021/12/11 06:18:30;;;;;;;33.13;19.52;;;-1.70;99.90;;;;;;5072043;28;20033;-64
2021/12/11 06:20:55;;;;;;;29.50;18.92;;;-1.80;99.90;;;;;;5071997;28;20032;-64
2021/12/11 06:23:22;;;;;;;33.47;20.70;;;-1.70;99.90;;;;;;5071327;28;20488;-64
2021/12/11 06:25:50;;;;;;;31.42;19.88;;;-1.70;99.90;;;;;;5070763;28;20192;-63
2021/12/11 06:28:16;;;;;;;32.47;20.70;;;-1.70;99.90;;;;;;5071446;28;20045;-64
2021/12/11 06:30:42;;;;;;;31.15;19.20;;;-1.70;99.90;;;;;;5070588;28;20040;-64
2021/12/11 06:33:09;;;;;;;31.95;19.80;;;-1.70;99.90;;;;;;5071572;28;20493;-63
2021/12/11 06:35:37;;;;;;;32.63;20.52;;;-1.70;99.90;;;;;;5071100;28;20036;-63
2021/12/11 06:38:06;;;;;;;30.77;19.20;;;-1.70;99.90;;;;;;5071831;28;20048;-63
2021/12/11 06:40:32;;;;;;;37.72;19.83;;;-1.70;99.90;;;;;;5071433;28;20063;-64
2021/12/11 06:42:58;;;;;;;33.67;20.95;;;-1.70;99.90;;;;;;5071425;28;20564;-64
2021/12/11 06:45:25;;;;;;;35.55;20.45;;;-1.70;99.90;;;;;;5071099;28;20043;-63
2021/12/11 06:47:51;;;;;;;29.85;18.98;;;-1.70;99.90;;;;;;5071729;28;20045;-64
2021/12/11 06:50:18;;;;;;;30.42;20.65;;;-1.80;99.90;;;;;;5069851;28;20612;-64
2021/12/11 06:52:45;;;;;;;34.45;19.50;;;-1.80;99.90;;;;;;5071187;28;20504;-63
2021/12/11 06:55:11;;;;;;;30.10;19.85;;;-1.80;99.90;;;;;;5069410;28;20505;-65
2021/12/11 06:57:37;;;;;;;35.50;19.08;;;-1.70;99.90;;;;;;5071446;28;20047;-64
2021/12/11 07:00:05;;;;;;;33.10;20.73;;;-1.70;99.90;;;;;;5071048;28;20498;-64
2021/12/11 07:02:31;;;;;;;30.73;20.13;;;-1.70;99.90;;;;;;5071137;28;20409;-64
2021/12/11 07:04:56;;;;;;;28.27;18.42;;;-1.70;99.90;;;;;;5070666;28;20038;-64
2021/12/11 07:07:26;;;;;;;27.83;19.17;;;-1.70;99.90;;;;;;5071249;28;20111;-63
2021/12/11 07:09:54;;;;;;;24.95;16.40;;;-1.70;99.90;;;;;;5071459;28;20119;-64
2021/12/11 07:12:20;;;;;;;24.60;16.20;;;-1.80;99.90;;;;;;5071065;28;20044;-63
2021/12/11 07:14:46;;;;;;;30.40;17.85;;;-1.90;99.90;;;;;;5072793;28;20025;-63
2021/12/11 07:17:12;;;;;;;27.50;17.98;;;-1.90;99.90;;;;;;5090874;28;20097;-64
2021/12/11 07:19:39;;;;;;;27.55;17.73;;;-1.90;99.90;;;;;;5086340;28;20036;-64
2021/12/11 07:22:05;;;;;;;30.60;17.02;;;-1.90;99.90;;;;;;5076620;28;20047;-64
2021/12/11 07:24:38;;;;;;;27.50;17.17;;;-1.90;99.90;;;;;;5075728;28;20041;-64
2021/12/11 07:27:07;;;;;;;39.03;19.48;;;-1.90;99.90;;;;;;5069288;28;20049;-64
2021/12/11 07:29:33;;;;;;;33.60;19.63;;;-1.90;99.90;;;;;;5071000;28;20092;-64
2021/12/11 07:31:59;;;;;;;29.08;19.20;;;-1.90;99.90;;;;;;5068951;28;20041;-63
2021/12/11 07:34:25;;;;;;;;;;;-1.90;99.90;;;;;;5071062;28;20481;-65
2021/12/11 07:36:51;;;;;;;26.13;17.58;;;-1.90;99.90;;;;;;5070849;28;19924;-64
2021/12/11 07:39:19;;;;;;;27.02;18.25;;;-1.90;99.90;;;;;;5069136;28;20502;-64
2021/12/11 07:41:46;;;;;;;27.27;18.42;;;-1.90;99.90;;;;;;5073551;28;20060;-64
2021/12/11 07:44:12;;;;;;;29.65;18.00;;;-2.10;99.90;;;;;;5079931;28;20044;-65
2021/12/11 07:46:38;;;;;;;30.50;17.75;;;-2.10;99.90;;;;;;5075230;28;20401;-65
2021/12/11 07:49:05;;;;;;;30.63;19.10;;;-2.00;99.90;;;;;;5070053;28;20051;-65
2021/12/11 07:51:32;;;;;;;30.70;17.10;;;-2.10;99.90;;;;;;5069334;28;20028;-65
2021/12/11 07:53:58;;;;;;;32.58;18.70;;;-2.00;99.90;;;;;;5082344;28;20040;-65
2021/12/11 07:56:24;;;;;;;28.67;18.88;;;-2.10;99.90;;;;;;5075415;28;20040;-65
2021/12/11 07:58:53;;;;;;;29.23;19.05;;;-2.00;99.90;;;;;;5069721;28;20044;-65
2021/12/11 08:01:19;;;;;;;28.52;18.08;;;-1.90;99.90;;;;;;5075168;28;20036;-65
2021/12/11 08:03:45;;;;;;;35.15;19.05;;;-1.90;99.90;;;;;;5088299;28;20515;-65
2021/12/11 08:06:13;;;;;;;27.48;17.05;;;-1.80;99.90;;;;;;5090227;28;20055;-64
2021/12/11 08:08:41;;;;;;;32.28;18.48;;;-1.70;99.90;;;;;;5088722;28;20032;-64
2021/12/11 08:11:13;;;;;;;33.95;20.90;;;-1.50;99.90;;;;;;5089231;28;20047;-65
2021/12/11 08:13:41;;;;;;;33.90;20.20;;;-1.40;99.90;;;;;;5069618;28;20086;-65
2021/12/11 08:16:07;;;;;;;33.72;19.90;;;-1.20;99.90;;;;;;5067404;28;20075;-64
2021/12/11 08:18:33;;;;;;;25.75;18.30;;;-0.70;99.90;;;;;;5088506;28;20040;-65
2021/12/11 08:20:58;;;;;;;23.37;16.97;;;-0.40;99.90;;;;;;5071997;28;20041;-65
2021/12/11 08:23:24;;;;;;;22.03;15.60;;;0.00;99.90;;;;;;5082264;28;20062;-65
2021/12/11 08:25:52;;;;;;;19.40;14.40;;;0.50;99.90;;;;;;5079816;28;20036;-65
2021/12/11 08:28:22;;;;;;;18.10;14.52;;;1.00;99.90;;;;;;5071251;28;20394;-65
2021/12/11 08:30:49;;;;;;;20.88;14.10;;;1.50;99.90;;;;;;5070111;28;20044;-65
2021/12/11 08:33:15;;;;;;;15.18;13.35;;;2.10;99.90;;;;;;5067851;28;20048;-65
2021/12/11 08:35:42;;;;;;;18.83;13.05;;;2.40;99.90;;;;;;5071096;28;20211;-66
2021/12/11 08:38:07;;;;;;;;;;;2.80;99.90;;;;;;5070025;28;20073;-65
2021/12/11 08:40:38;;;;;;;17.70;13.75;;;3.20;99.60;;;;;;5073620;28;19916;-64
2021/12/11 08:43:06;;;;;;;19.40;13.80;;;3.50;98.90;;;;;;5072683;28;20036;-64
2021/12/11 08:45:45;;;;;;;18.80;13.30;;;3.90;99.60;;;;;;5078165;28;20040;-63
2021/12/11 08:48:15;;;;;;;16.88;14.35;;;4.50;98.90;;;;;;5089001;28;20107;-62
2021/12/11 08:50:42;;;;;;;17.90;13.73;;;4.90;98.10;;;;;;5089670;28;20111;-63
2021/12/11 08:53:08;;;;;;;14.82;12.68;;;5.30;97.60;;;;;;5091024;28;20032;-64
2021/12/11 08:55:39;;;;;;;15.65;12.93;;;5.90;97.60;;;;;;5081839;28;20493;-64
2021/12/11 08:58:09;;;;;;;16.33;13.13;;;6.20;95.80;;;;;;5093250;28;20085;-65
2021/12/11 09:01:03;;;;;;;17.65;14.00;;;6.50;96.00;;;;;;5088818;28;20044;-63
2021/12/11 09:03:39;;;;;;;18.45;14.95;;;7.10;95.50;;;;;;5078088;28;20068;-65
2021/12/11 09:06:18;;;;;;;15.32;13.52;;;7.70;94.50;;;;;;5094376;28;20044;-65
2021/12/11 09:08:53;;;;;;;14.50;12.98;;;8.00;93.70;;;;;;5092228;28;20403;-65
2021/12/11 09:11:24;;;;;;;17.17;13.43;;;8.40;93.20;;;;;;5090507;28;20456;-64
2021/12/11 09:13:59;;;;;;;16.27;13.88;;;8.70;92.90;;;;;;5091311;28;20454;-64
2021/12/11 09:16:33;;;;;;;17.10;13.70;;;9.20;91.80;;;;;;5092963;28;20036;-64
2021/12/11 09:19:17;;;;;;;16.60;14.52;;;9.50;90.30;;;;;;5093014;28;20075;-64
2021/12/11 09:22:41;;;;;;;17.73;14.73;;;9.80;90.00;;;;;;5064209;28;20577;-64
2021/12/11 09:25:16;;;;;;;18.38;14.88;;;10.00;83.70;;;;;;4991458;28;20050;-64
2021/12/11 09:27:42;;;;;;;17.15;14.93;;;10.20;88.50;;;;;;4974580;28;20111;-63
2021/12/11 09:30:13;;;;;;;21.47;16.07;;;10.40;84.00;;;;;;5044877;28;20044;-66
2021/12/11 09:32:53;;;;;;;23.52;16.13;;;10.60;84.10;;;;;;5072089;28;20195;-62
2021/12/11 09:35:41;;;;;;;19.48;15.20;;;10.40;77.80;;;;;;5072346;28;20040;-64
2021/12/11 09:38:12;;;;;;;;;;;10.50;83.10;;;;;;5072867;28;20044;-64
2021/12/11 09:40:37;;;;;;;20.67;14.10;;;10.90;79.80;;;;;;5072843;28;19938;-64
2021/12/11 09:43:03;;;;;;;21.63;16.20;;;11.20;83.10;;;;;;5070672;28;20464;-65
2021/12/11 09:45:36;;;;;;;18.15;13.98;;;11.80;80.90;;;;;;5072759;28;20098;-65
2021/12/11 09:48:07;;;;;;;19.85;13.98;;;12.20;79.60;;;;;;5072378;28;20404;-64
2021/12/11 09:50:44;;;;;;;17.90;15.65;;;12.60;71.70;;;;;;5072729;28;20086;-65
2021/12/11 09:53:13;;;;;;;16.52;14.20;;;12.50;69.20;;;;;;5072130;28;20033;-66
2021/12/11 09:55:39;;;;;;;20.73;15.80;;;12.10;69.60;;;;;;5072326;28;20040;-65
2021/12/11 09:58:09;;;;;;;19.50;14.70;;;11.50;70.90;;;;;;5083690;28;20078;-65
2021/12/11 10:00:38;;;;;;;17.88;14.13;;;11.10;74.80;;;;;;5079538;28;20389;-65
2021/12/11 10:03:08;;;;;;;18.75;14.88;;;11.10;78.10;;;;;;5082784;28;20067;-65
2021/12/11 10:05:49;;;;;;;17.52;15.02;;;11.50;74.60;;;;;;5074691;28;20501;-64
2021/12/11 10:08:29;;;;;;;18.08;13.65;;;12.10;76.10;;;;;;5090509;28;20047;-65
2021/12/11 10:11:09;;;;;;;15.35;13.30;;;12.50;73.30;;;;;;5068034;28;20032;-65
2021/12/11 10:13:46;;;;;;;16.77;14.80;;;13.00;71.90;;;;;;5079296;28;20035;-64
2021/12/11 10:16:13;;;;;;;13.93;12.50;;;13.30;70.70;;;;;;5090107;28;20404;-65
2021/12/11 10:18:40;;;;;;;17.00;13.77;;;13.30;68.40;;;;;;5079258;28;20040;-64
2021/12/11 10:21:32;;;;;;;16.13;12.80;;;13.00;66.40;;;;;;5086908;28;20083;-65
2021/12/11 10:24:00;;;;;;;14.68;13.18;;;12.50;66.40;;;;;;5072752;28;20497;-65
2021/12/11 10:26:28;;;;;;;17.00;14.30;;;12.50;73.00;;;;;;5068932;28;20103;-65
2021/12/11 10:28:57;;;;;;;17.35;14.45;;;12.70;73.70;;;;;;5077959;28;20036;-64
2021/12/11 10:31:47;;;;;;;17.45;12.93;;;13.20;72.80;;;;;;5080216;28;20047;-65
2021/12/11 10:34:17;;;;;;;14.35;12.02;;;14.00;69.80;;;;;;5071249;28;20468;-65
2021/12/11 10:36:50;;;;;;;14.23;12.32;;;14.70;67.30;;;;;;5075669;28;20320;-65
2021/12/11 10:39:16;;;;;;;18.65;12.88;;;15.50;64.80;;;;;;5081893;28;20409;-65
2021/12/11 10:41:42;;;;;;;14.00;12.48;;;16.10;62.70;;;;;;5076236;28;20032;-65
2021/12/11 10:44:19;;;;;;;15.40;13.63;;;16.50;59.50;;;;;;5078852;28;20047;-65
2021/12/11 10:46:54;;;;;;;16.02;12.63;;;16.60;57.00;;;;;;5071505;28;20044;-65
2021/12/11 10:49:20;;;;;;;18.45;13.30;;;16.40;56.00;;;;;;5070929;28;20070;-64
2021/12/11 10:51:50;;;;;;;14.90;12.20;;;16.00;56.10;;;;;;5070967;28;20116;-65
2021/12/11 10:54:18;;;;;;;15.30;11.82;;;15.50;56.10;;;;;;5070713;28;20071;-64
2021/12/11 10:56:44;;;;;;;16.58;13.02;;;15.20;57.10;;;;;;5071536;28;20125;-65
2021/12/11 10:59:16;;;;;;;15.40;12.70;;;15.10;57.50;;;;;;5070917;28;20041;-64
2021/12/11 11:02:09;;;;;;;16.05;11.82;;;15.30;58.60;;;;;;5070991;28;20427;-64
2021/12/11 11:04:40;;;;;;;12.93;11.52;;;16.30;57.10;;;;;;5070495;28;20082;-64
2021/12/11 11:07:07;;;;;;;15.52;13.18;;;17.10;55.60;;;;;;5071017;28;20493;-65
2021/12/11 11:09:32;;;;;;;;;;;17.50;52.80;;;;;;5071263;28;20044;-64
2021/12/11 11:12:05;;;;;;;17.65;13.02;;;17.60;48.80;;;;;;5069644;28;19923;-64
2021/12/11 11:14:32;;;;;;;14.98;13.43;;;17.90;51.60;;;;;;5069866;28;20028;-65
2021/12/11 11:17:05;;;;;;;13.52;12.13;;;18.10;49.40;;;;;;5066258;28;20054;-64
2021/12/11 11:19:34;;;;;;;14.73;12.80;;;17.90;49.90;;;;;;5054054;28;20127;-65
2021/12/11 11:22:04;;;;;;;17.13;13.32;;;17.80;50.20;;;;;;5066686;28;20488;-65
2021/12/11 11:24:34;;;;;;;16.88;12.27;;;17.90;50.10;;;;;;5050465;28;20059;-65
2021/12/11 11:27:01;;;;;;;17.27;13.20;;;18.30;49.60;;;;;;5049280;28;20123;-65
2021/12/11 11:29:27;;;;;;;18.33;13.85;;;18.50;49.70;;;;;;5049459;28;20037;-65
2021/12/11 11:31:56;;;;;;;16.25;13.80;;;18.50;48.90;;;;;;5050651;28;20036;-65
2021/12/11 11:34:26;;;;;;;17.52;12.98;;;18.60;47.80;;;;;;5050483;28;20214;-65
2021/12/11 11:36:55;;;;;;;16.80;13.20;;;18.60;46.90;;;;;;5050657;28;20040;-65
2021/12/11 11:39:24;;;;;;;15.35;12.13;;;18.70;48.10;;;;;;5050725;28;20107;-65
2021/12/11 11:41:55;;;;;;;16.95;12.82;;;18.80;47.60;;;;;;5058858;28;20052;-65
2021/12/11 11:44:22;;;;;;;16.25;12.55;;;18.90;47.40;;;;;;5070437;28;20041;-65
2021/12/11 11:46:49;;;;;;;15.70;14.05;;;19.30;48.60;;;;;;5070736;28;20045;-65
2021/12/11 11:49:16;;;;;;;16.13;12.52;;;19.20;46.70;;;;;;5069169;28;20043;-65
2021/12/11 11:51:53;;;;;;;15.82;13.43;;;19.00;47.20;;;;;;5070270;28;20047;-65
2021/12/11 11:54:21;;;;;;;14.52;13.02;;;19.00;46.90;;;;;;5069812;28;20040;-65
2021/12/11 11:56:54;;;;;;;18.30;14.73;;;19.10;46.10;;;;;;5069212;28;20075;-65
2021/12/11 11:59:19;;;;;;;17.80;14.38;;;19.00;45.90;;;;;;5070476;28;20074;-65
2021/12/11 12:02:00;;;;;;;20.88;15.63;;;18.80;46.30;;;;;;5070204;28;20032;-65
2021/12/11 12:04:28;;;;;;;16.58;14.55;;;18.60;45.40;;;;;;5073247;28;20052;-66
2021/12/11 12:06:59;;;;;;;15.88;13.65;;;18.60;45.70;;;;;;5075998;28;20581;-65
2021/12/11 12:09:26;;;;;;;14.18;12.77;;;19.00;47.20;;;;;;5077527;28;20052;-65
2021/12/11 12:11:53;;;;;;;19.42;14.35;;;19.10;46.50;;;;;;5090318;28;20165;-65
2021/12/11 12:14:26;;;;;;;17.98;15.43;;;19.20;46.30;;;;;;5075922;28;20037;-65
2021/12/11 12:16:52;;;;;;;17.83;14.60;;;19.00;46.10;;;;;;5070261;28;20401;-65
2021/12/11 12:19:22;;;;;;;22.65;15.85;;;19.10;46.40;;;;;;5078473;28;20032;-65
2021/12/11 12:21:51;;;;;;;19.48;14.95;;;19.00;45.50;;;;;;5082437;28;20119;-65
2021/12/11 12:24:21;;;;;;;19.27;14.18;;;19.10;46.20;;;;;;5080010;28;20156;-65
2021/12/11 12:26:50;;;;;;;19.95;14.70;;;19.10;46.50;;;;;;5081279;28;20136;-64
2021/12/11 12:29:18;;;;;;;17.67;14.73;;;18.80;45.60;;;;;;5090990;28;20044;-65
2021/12/11 12:31:53;;;;;;;18.02;15.18;;;18.80;46.80;;;;;;5082493;28;20404;-65
2021/12/11 12:34:20;;;;;;;19.95;13.80;;;18.80;46.00;;;;;;5080424;28;20093;-65
2021/12/11 12:36:46;;;;;;;16.35;14.35;;;18.70;46.50;;;;;;5090563;28;20075;-65
2021/12/11 12:39:14;;;;;;;19.10;16.83;;;18.70;45.60;;;;;;5074750;28;20036;-65
2021/12/11 12:41:53;;;;;;;18.88;14.60;;;18.40;45.70;;;;;;5084629;28;20043;-65
2021/12/11 12:44:21;;;;;;;19.55;16.58;;;18.00;45.30;;;;;;5071014;28;20072;-65
2021/12/11 12:46:55;;;;;;;18.17;14.73;;;17.80;46.80;;;;;;5081328;28;20033;-65
2021/12/11 12:49:25;;;;;;;21.58;15.30;;;17.30;46.50;;;;;;5073284;28;20044;-65
2021/12/11 12:51:51;;;;;;;21.92;15.85;;;16.30;47.00;;;;;;5073729;28;20036;-65
2021/12/11 12:54:18;;;;;;;;;;;15.30;48.80;;;;;;5073759;28;20039;-65
2021/12/11 12:56:49;;;;;;;19.75;16.02;;;15.10;50.40;;;;;;5073278;28;19998;-65